createdAt,value
2018-04-27T00:02:14.049Z,101407.88
2018-04-27T00:04:42.567Z,101406.13
2018-04-27T00:07:11.072Z,101408.24
2018-04-27T00:09:39.521Z,101404.27
2018-04-27T00:12:08.657Z,101398.91
2018-04-27T00:14:37.788Z,101398.88
2018-04-27T00:17:06.329Z,101402.14
2018-04-27T00:19:34.713Z,101397.89
2018-04-27T00:22:03.597Z,101395.09
2018-04-27T00:24:32.906Z,101393.97
2018-04-27T00:27:02.000Z,101389.05
2018-04-27T00:29:31.278Z,101390.59
2018-04-27T00:31:59.581Z,101384.95
2018-04-27T00:34:28.794Z,101388.22
2018-04-27T00:36:57.251Z,101390.47
2018-04-27T00:39:25.793Z,101385.45
2018-04-27T00:41:54.147Z,101383.05
2018-04-27T00:44:22.808Z,101378.55
2018-04-27T00:46:51.947Z,101384.88
2018-04-27T00:49:20.276Z,101385.76
2018-04-27T00:51:48.675Z,101391.47
2018-04-27T00:54:17.794Z,101386.77
2018-04-27T00:56:46.112Z,101388.92
2018-04-27T00:59:14.471Z,101388.06
2018-04-27T01:01:42.844Z,101381.61
2018-04-27T01:04:11.171Z,101385.84
2018-04-27T01:06:39.755Z,101388.33
2018-04-27T01:09:08.906Z,101386.27
2018-04-27T01:11:37.240Z,101384.24
2018-04-27T01:14:05.596Z,101373.72
2018-04-27T01:16:33.943Z,101379.67
2018-04-27T01:19:02.390Z,101382.87
2018-04-27T01:21:30.807Z,101374.23
2018-04-27T01:23:59.187Z,101380.95
2018-04-27T01:26:27.528Z,101376.11
2018-04-27T01:28:56.097Z,101373.00
2018-04-27T01:31:25.246Z,101373.33
2018-04-27T01:33:53.617Z,101374.58
2018-04-27T01:36:21.977Z,101375.50
2018-04-27T01:38:50.336Z,101377.58
2018-04-27T01:41:19.765Z,101368.77
2018-04-27T01:43:48.153Z,101378.59
2018-04-27T01:46:16.533Z,101376.46
2018-04-27T01:48:44.876Z,101377.28
2018-04-27T01:51:13.599Z,101376.49
2018-04-27T01:53:41.944Z,101374.64
2018-04-27T01:56:11.038Z,101382.22
2018-04-27T01:58:40.184Z,101381.37
2018-04-27T02:01:08.522Z,101382.27
2018-04-27T02:03:37.658Z,101377.77
2018-04-27T02:06:06.013Z,101369.81
2018-04-27T02:08:34.404Z,101367.70
2018-04-27T02:11:02.761Z,101373.69
2018-04-27T02:13:31.682Z,101364.43
2018-04-27T02:16:00.051Z,101365.67
2018-04-27T02:18:28.403Z,101367.19
2018-04-27T02:20:57.616Z,101361.16
2018-04-27T02:23:26.070Z,101366.00
2018-04-27T02:25:54.548Z,101366.73
2018-04-27T02:28:23.022Z,101369.64
2018-04-27T02:30:51.421Z,101365.42
2018-04-27T02:33:20.616Z,101372.54
2018-04-27T02:35:49.187Z,101364.61
2018-04-27T02:38:17.564Z,101361.40
2018-04-27T02:40:45.957Z,101354.39
2018-04-27T02:43:15.228Z,101350.78
2018-04-27T02:45:43.620Z,101356.20
2018-04-27T02:48:12.100Z,101354.09
2018-04-27T02:50:40.523Z,101345.84
2018-04-27T02:53:08.881Z,101351.52
2018-04-27T02:55:38.055Z,101354.66
2018-04-27T02:58:06.752Z,101353.06
2018-04-27T03:00:35.165Z,101356.80
2018-04-27T03:03:03.618Z,101352.69
2018-04-27T03:05:32.012Z,101354.60
2018-04-27T03:08:01.197Z,101350.66
2018-04-27T03:10:30.291Z,101352.67
2018-04-27T03:12:58.767Z,101357.39
2018-04-27T03:15:27.195Z,101343.63
2018-04-27T03:17:55.602Z,101348.69
2018-04-27T03:20:24.435Z,101344.11
2018-04-27T03:22:52.913Z,101343.17
2018-04-27T03:25:22.205Z,101350.48
2018-04-27T03:27:50.624Z,101338.58
2018-04-27T03:30:19.073Z,101339.84
2018-04-27T03:32:47.645Z,101338.50
2018-04-27T03:35:16.061Z,101338.00
2018-04-27T03:37:44.401Z,101330.99
2018-04-27T03:40:12.809Z,101338.94
2018-04-27T03:42:42.773Z,101338.13
2018-04-27T03:45:11.158Z,101333.52
2018-04-27T03:47:39.518Z,101331.38
2018-04-27T03:50:07.903Z,101337.36
2018-04-27T03:52:46.922Z,101332.91
2018-04-27T03:55:15.410Z,101331.77
2018-04-27T03:57:43.815Z,101331.06
2018-04-27T04:00:29.988Z,101331.83
2018-04-27T04:03:15.811Z,101331.44
2018-04-27T04:05:44.189Z,101327.19
2018-04-27T04:08:12.634Z,101339.65
2018-04-27T04:10:40.949Z,101337.73
2018-04-27T04:13:09.341Z,101342.45
2018-04-27T04:15:38.479Z,101343.86
2018-04-27T04:18:06.831Z,101350.48
2018-04-27T04:20:36.068Z,101348.03
2018-04-27T04:23:04.431Z,101353.30
2018-04-27T04:25:32.809Z,101350.41
2018-04-27T04:28:01.202Z,101355.40
2018-04-27T04:30:29.534Z,101348.02
2018-04-27T04:32:58.684Z,101356.92
2018-04-27T04:35:27.147Z,101350.08
2018-04-27T04:37:55.490Z,101353.63
2018-04-27T04:40:24.667Z,101354.09
2018-04-27T04:42:53.510Z,101347.42
2018-04-27T04:45:21.865Z,101354.63
2018-04-27T04:47:50.935Z,101353.46
2018-04-27T04:50:19.321Z,101348.46
2018-04-27T04:52:47.683Z,101360.31
2018-04-27T04:55:16.080Z,101358.00
2018-04-27T04:57:44.456Z,101362.90
2018-04-27T05:00:12.820Z,101363.70
2018-04-27T05:02:41.235Z,101364.55
2018-04-27T05:05:10.050Z,101358.40
2018-04-27T05:07:38.432Z,101354.59
2018-04-27T05:10:06.802Z,101356.78
2018-04-27T05:12:35.948Z,101357.56
2018-04-27T05:15:04.343Z,101357.67
2018-04-27T05:17:32.726Z,101363.67
2018-04-27T05:20:00.314Z,101364.42
2018-04-27T05:22:33.408Z,101366.38
2018-04-27T05:25:02.135Z,101370.66
2018-04-27T05:27:30.506Z,101373.34
2018-04-27T05:29:58.812Z,101372.23
2018-04-27T05:32:27.172Z,101370.31
2018-04-27T05:34:55.577Z,101377.02
2018-04-27T05:37:23.917Z,101376.57
2018-04-27T05:39:52.267Z,101376.27
2018-04-27T05:42:21.363Z,101375.68
2018-04-27T05:44:49.932Z,101372.29
2018-04-27T05:47:19.580Z,101371.95
2018-04-27T05:49:47.895Z,101373.05
2018-04-27T05:52:16.256Z,101373.48
2018-04-27T05:54:44.645Z,101371.08
2018-04-27T05:57:12.988Z,101368.66
2018-04-27T05:59:41.338Z,101371.22
2018-04-27T06:02:09.710Z,101373.30
2018-04-27T06:04:38.140Z,101369.37
2018-04-27T06:07:06.413Z,101370.23
2018-04-27T06:09:35.761Z,101364.88
2018-04-27T06:12:04.109Z,101365.41
2018-04-27T06:14:32.444Z,101362.78
2018-04-27T06:17:00.826Z,101354.09
2018-04-27T06:19:29.150Z,101358.16
2018-04-27T06:21:57.525Z,101351.47
2018-04-27T06:24:25.902Z,101354.30
2018-04-27T06:26:54.256Z,101350.14
2018-04-27T06:29:22.600Z,101349.28
2018-04-27T06:31:51.921Z,101348.52
2018-04-27T06:34:21.033Z,101350.25
2018-04-27T06:36:49.393Z,101342.05
2018-04-27T06:39:17.746Z,101337.30
2018-04-27T06:41:46.089Z,101336.66
2018-04-27T06:44:14.423Z,101345.19
2018-04-27T06:46:43.794Z,101334.23
2018-04-27T06:49:12.281Z,101332.28
2018-04-27T06:51:40.625Z,101337.04
2018-04-27T06:54:09.229Z,101335.52
2018-04-27T06:56:37.592Z,101330.58
2018-04-27T06:59:05.922Z,101331.64
2018-04-27T07:01:35.121Z,101332.55
2018-04-27T07:04:04.279Z,101330.92
2018-04-27T07:06:32.724Z,101329.67
2018-04-27T07:09:01.100Z,101333.30
2018-04-27T07:11:29.457Z,101331.63
2018-04-27T07:13:57.844Z,101329.95
2018-04-27T07:16:27.220Z,101327.84
2018-04-27T07:18:55.576Z,101336.61
2018-04-27T07:21:23.920Z,101335.00
2018-04-27T07:23:52.377Z,101331.83
2018-04-27T07:26:20.752Z,101333.53
2018-04-27T07:28:49.270Z,101339.97
2018-04-27T07:31:17.700Z,101337.78
2018-04-27T07:33:46.060Z,101337.94
2018-04-27T07:36:14.462Z,101341.91
2018-04-27T07:38:43.287Z,101347.03
2018-04-27T07:41:11.773Z,101345.06
2018-04-27T07:43:40.115Z,101337.25
2018-04-27T07:46:08.498Z,101339.23
2018-04-27T07:48:37.650Z,101338.23
2018-04-27T07:51:05.999Z,101338.47
2018-04-27T07:53:35.139Z,101328.58
2018-04-27T07:56:03.507Z,101332.91
2018-04-27T07:58:31.854Z,101328.02
2018-04-27T08:01:01.258Z,101326.85
2018-04-27T08:03:30.375Z,101329.94
2018-04-27T08:05:58.756Z,101324.14
2018-04-27T08:08:27.126Z,101328.41
2018-04-27T08:10:55.475Z,101323.89
2018-04-27T08:13:23.799Z,101322.68
2018-04-27T08:15:52.183Z,101327.89
2018-04-27T08:18:22.212Z,101328.16
2018-04-27T08:20:50.554Z,101324.45
2018-04-27T08:23:19.926Z,101325.88
2018-04-27T08:25:48.263Z,101328.52
2018-04-27T08:28:16.698Z,101334.02
2018-04-27T08:30:45.915Z,101329.48
2018-04-27T08:33:14.233Z,101322.84
2018-04-27T08:35:42.649Z,101317.86
2018-04-27T08:38:11.027Z,101318.25
2018-04-27T08:40:39.375Z,101318.73
2018-04-27T08:43:07.730Z,101312.32
2018-04-27T08:45:36.156Z,101312.27
2018-04-27T08:48:04.464Z,101327.14
2018-04-27T08:50:32.846Z,101326.81
2018-04-27T08:53:02.001Z,101326.79
2018-04-27T08:55:30.359Z,101320.31
2018-04-27T08:57:58.742Z,101327.70
2018-04-27T09:00:27.144Z,101328.14
2018-04-27T09:02:55.451Z,101318.55
2018-04-27T09:05:24.580Z,101317.59
2018-04-27T09:07:53.153Z,101314.77
2018-04-27T09:10:21.608Z,101312.69
2018-04-27T09:12:50.728Z,101321.22
2018-04-27T09:15:19.123Z,101323.67
2018-04-27T09:17:47.466Z,101318.90
2018-04-27T09:20:15.825Z,101328.83
2018-04-27T09:22:44.194Z,101316.98
2018-04-27T09:25:12.498Z,101316.53
2018-04-27T09:27:40.923Z,101313.77
2018-04-27T09:30:09.638Z,101311.09
2018-04-27T09:32:38.757Z,101310.22
2018-04-27T09:35:07.096Z,101300.34
2018-04-27T09:37:35.471Z,101305.42
2018-04-27T09:40:03.927Z,101305.17
2018-04-27T09:42:32.280Z,101305.17
2018-04-27T09:45:01.437Z,101299.19
2018-04-27T09:47:30.904Z,101289.84
2018-04-27T09:49:59.253Z,101288.22
2018-04-27T09:52:28.261Z,101288.75
2018-04-27T09:54:56.660Z,101283.55
2018-04-27T09:57:25.069Z,101272.14
2018-04-27T09:59:53.432Z,101275.92
2018-04-27T10:02:21.778Z,101287.03
2018-04-27T10:04:50.307Z,101270.19
2018-04-27T10:07:18.682Z,101271.44
2018-04-27T10:09:46.999Z,101268.70
2018-04-27T10:12:15.445Z,101262.09
2018-04-27T10:14:43.898Z,101260.70
2018-04-27T10:17:12.269Z,101255.04
2018-04-27T10:19:41.461Z,101255.45
2018-04-27T10:22:09.832Z,101252.88
2018-04-27T10:24:38.186Z,101242.14
2018-04-27T10:27:06.530Z,101233.08
2018-04-27T10:29:34.911Z,101232.33
2018-04-27T10:32:03.245Z,101227.36
2018-04-27T10:34:32.405Z,101231.05
2018-04-27T10:37:00.947Z,101224.59
2018-04-27T10:39:29.289Z,101223.27
2018-04-27T10:41:57.652Z,101225.80
2018-04-27T10:44:26.029Z,101205.98
2018-04-27T10:46:54.396Z,101205.98
2018-04-27T10:49:22.752Z,101202.06
2018-04-27T10:51:51.106Z,101197.75
2018-04-27T10:54:20.208Z,101194.84
2018-04-27T10:56:49.307Z,101185.98
2018-04-27T10:59:18.101Z,101183.95
2018-04-27T11:01:46.455Z,101182.75
2018-04-27T11:04:15.622Z,101186.44
2018-04-27T11:06:44.040Z,101180.57
2018-04-27T11:09:13.151Z,101174.28
2018-04-27T11:11:42.246Z,101175.35
2018-04-27T11:14:11.405Z,101171.76
2018-04-27T11:16:40.105Z,101166.06
2018-04-27T11:19:08.457Z,101170.17
2018-04-27T11:21:37.075Z,101173.52
2018-04-27T11:24:05.478Z,101168.44
2018-04-27T11:26:33.851Z,101161.23
2018-04-27T11:29:02.207Z,101156.45
2018-04-27T11:31:30.551Z,101163.26
2018-04-27T11:33:58.936Z,101151.59
2018-04-27T11:36:27.320Z,101149.80
2018-04-27T11:38:55.644Z,101148.44
2018-04-27T11:41:24.006Z,101145.42
2018-04-27T11:43:53.364Z,101147.16
2018-04-27T11:46:21.732Z,101130.70
2018-04-27T11:48:50.297Z,101133.84
2018-04-27T11:51:18.714Z,101136.88
2018-04-27T11:53:47.105Z,101137.09
2018-04-27T11:56:15.464Z,101128.36
2018-04-27T11:58:43.837Z,101118.20
2018-04-27T12:01:12.192Z,101131.58
2018-04-27T12:03:40.652Z,101111.05
2018-04-27T12:06:09.115Z,101123.20
2018-04-27T12:08:38.248Z,101112.15
2018-04-27T12:11:06.581Z,101113.86
2018-04-27T12:13:34.953Z,101118.94
2018-04-27T12:16:03.380Z,101109.30
2018-04-27T12:18:32.510Z,101109.47
2018-04-27T12:21:00.935Z,101107.27
2018-04-27T12:23:29.291Z,101108.75
2018-04-27T12:25:57.647Z,101104.64
2018-04-27T12:28:26.496Z,101104.52
2018-04-27T12:30:55.684Z,101097.83
2018-04-27T12:33:23.967Z,101095.41
2018-04-27T12:35:52.311Z,101103.26
2018-04-27T12:38:20.653Z,101099.16
2018-04-27T12:40:49.009Z,101100.69
2018-04-27T12:43:18.132Z,101102.11
2018-04-27T12:45:46.493Z,101102.47
2018-04-27T12:48:14.874Z,101102.76
2018-04-27T12:50:44.893Z,101100.88
2018-04-27T12:53:14.077Z,101090.09
2018-04-27T12:55:43.214Z,101104.04
2018-04-27T12:58:11.592Z,101097.61
2018-04-27T13:00:39.946Z,101094.81
2018-04-27T13:03:09.047Z,101098.63
2018-04-27T13:05:38.197Z,101085.44
2018-04-27T13:08:06.514Z,101093.88
2018-04-27T13:10:35.616Z,101093.23
2018-04-27T13:13:04.217Z,101085.63
2018-04-27T13:15:33.312Z,101084.28
2018-04-27T13:18:01.702Z,101070.51
2018-04-27T13:20:30.083Z,101065.74
2018-04-27T13:22:58.434Z,101064.11
2018-04-27T13:25:26.834Z,101065.27
2018-04-27T13:27:55.264Z,101050.97
2018-04-27T13:30:23.618Z,101066.78
2018-04-27T13:32:51.933Z,101065.98
2018-04-27T13:35:21.551Z,101053.83
2018-04-27T13:37:49.915Z,101052.47
2018-04-27T13:40:18.242Z,101040.47
2018-04-27T13:42:46.677Z,101036.53
2018-04-27T13:45:15.076Z,101037.50
2018-04-27T13:47:43.370Z,101034.60
2018-04-27T13:50:11.791Z,101037.64
2018-04-27T13:52:40.570Z,101029.16
2018-04-27T13:55:08.904Z,101023.27
2018-04-27T13:57:37.503Z,101023.98
2018-04-27T14:00:05.825Z,101028.23
2018-04-27T14:02:34.196Z,101029.07
2018-04-27T14:05:02.540Z,101025.37
2018-04-27T14:07:30.915Z,101023.87
2018-04-27T14:09:59.252Z,101022.03
2018-04-27T14:12:27.599Z,101006.01
2018-04-27T14:14:55.905Z,101001.12
2018-04-27T14:17:24.216Z,100991.06
2018-04-27T14:19:52.908Z,100974.28
2018-04-27T14:22:21.291Z,100972.70
2018-04-27T14:24:49.695Z,100968.86
2018-04-27T14:27:18.068Z,100965.03
2018-04-27T14:29:46.478Z,100958.16
2018-04-27T14:32:14.824Z,100967.62
2018-04-27T14:34:43.219Z,100958.64
2018-04-27T14:37:11.558Z,100957.23
2018-04-27T14:39:40.680Z,100960.14
2018-04-27T14:42:09.420Z,100956.83
2018-04-27T14:44:38.539Z,100936.10
2018-04-27T14:47:06.883Z,100947.38
2018-04-27T14:49:35.244Z,100944.88
2018-04-27T14:52:03.652Z,100940.72
2018-04-27T14:54:31.959Z,100936.86
2018-04-27T14:57:00.359Z,100930.97
2018-04-27T14:59:28.727Z,100931.67
2018-04-27T15:01:57.068Z,100929.08
2018-04-27T15:04:25.739Z,100936.05
2018-04-27T15:06:54.793Z,100928.72
2018-04-27T15:09:23.133Z,100935.23
2018-04-27T15:11:51.502Z,100937.56
2018-04-27T15:14:19.824Z,100936.51
2018-04-27T15:16:48.124Z,100932.12
2018-04-27T15:19:16.517Z,100929.26
2018-04-27T15:21:44.885Z,100923.05
2018-04-27T15:24:13.354Z,100931.48
2018-04-27T15:26:41.985Z,100932.77
2018-04-27T15:29:10.300Z,100923.99
2018-04-27T15:31:38.623Z,100925.66
2018-04-27T15:34:06.960Z,100923.42
2018-04-27T15:36:35.303Z,100923.46
2018-04-27T15:39:04.425Z,100920.84
2018-04-27T15:41:32.796Z,100927.67
2018-04-27T15:44:01.158Z,100905.08
2018-04-27T15:46:30.253Z,100909.95
2018-04-27T15:48:59.515Z,100920.52
2018-04-27T15:51:27.874Z,100906.99
2018-04-27T15:53:56.325Z,100911.44
2018-04-27T15:56:25.558Z,100910.84
2018-04-27T15:58:54.628Z,100906.19
2018-04-27T16:01:22.999Z,100912.86
2018-04-27T16:03:52.099Z,100902.44
2018-04-27T16:06:21.198Z,100898.30
2018-04-27T16:08:50.426Z,100900.61
2018-04-27T16:11:19.275Z,100902.20
2018-04-27T16:13:53.075Z,100904.34
2018-04-27T16:16:23.275Z,100914.25
2018-04-27T16:18:53.012Z,100906.91
2018-04-27T16:21:22.311Z,100906.73
2018-04-27T16:23:50.660Z,100904.52
2018-04-27T16:26:22.464Z,100895.47
2018-04-27T16:28:51.647Z,100897.28
2018-04-27T16:31:20.776Z,100893.69
2018-04-27T16:33:49.083Z,100883.88
2018-04-27T16:36:17.527Z,100889.69
2018-04-27T16:38:45.882Z,100889.88
2018-04-27T16:41:14.230Z,100888.95
2018-04-27T16:43:42.708Z,100898.13
2018-04-27T16:46:11.125Z,100892.53
2018-04-27T16:48:39.475Z,100891.91
2018-04-27T16:51:08.136Z,100898.34
2018-04-27T16:53:37.254Z,100890.59
2018-04-27T16:56:05.580Z,100890.17
2018-04-27T16:58:34.673Z,100888.95
2018-04-27T17:01:03.778Z,100897.59
2018-04-27T17:03:32.117Z,100890.53
2018-04-27T17:06:00.455Z,100889.05
2018-04-27T17:08:28.768Z,100890.09
2018-04-27T17:10:57.096Z,100893.46
2018-04-27T17:13:25.930Z,100881.14
2018-04-27T17:15:54.189Z,100881.75
2018-04-27T17:18:22.537Z,100889.88
2018-04-27T17:20:50.883Z,100885.68
2018-04-27T17:23:19.284Z,100878.36
2018-04-27T17:25:48.374Z,100876.16
2018-04-27T17:28:17.506Z,100870.81
2018-04-27T17:30:45.850Z,100872.60
2018-04-27T17:33:14.961Z,100879.98
2018-04-27T17:35:43.472Z,100875.87
2018-04-27T17:38:11.800Z,100872.70
2018-04-27T17:40:40.944Z,100874.61
2018-04-27T17:43:09.352Z,100875.13
2018-04-27T17:45:37.780Z,100877.31
2018-04-27T17:48:06.041Z,100875.95
2018-04-27T17:50:34.435Z,100888.11
2018-04-27T17:53:03.553Z,100875.31
2018-04-27T17:55:31.897Z,100876.72
2018-04-27T17:58:00.371Z,100879.25
2018-04-27T18:00:29.504Z,100875.97
2018-04-27T18:02:57.840Z,100879.24
2018-04-27T18:05:26.223Z,100881.98
2018-04-27T18:07:55.367Z,100875.84
2018-04-27T18:10:23.728Z,100879.31
2018-04-27T18:12:52.869Z,100881.95
2018-04-27T18:15:21.207Z,100879.62
2018-04-27T18:17:49.644Z,100883.01
2018-04-27T18:20:18.408Z,100883.47
2018-04-27T18:22:46.739Z,100881.01
2018-04-27T18:25:15.127Z,100880.69
2018-04-27T18:27:43.595Z,100883.84
2018-04-27T18:30:11.911Z,100886.91
2018-04-27T18:32:40.295Z,100889.80
2018-04-27T18:35:08.726Z,100883.84
2018-04-27T18:37:37.856Z,100884.69
2018-04-27T18:40:06.239Z,100881.95
2018-04-27T18:42:35.119Z,100889.86
2018-04-27T18:45:03.471Z,100880.47
2018-04-27T18:47:32.579Z,100879.52
2018-04-27T18:50:01.699Z,100878.03
2018-04-27T18:52:30.348Z,100879.51
2018-04-27T18:54:58.774Z,100880.75
2018-04-27T18:57:27.155Z,100877.58
2018-04-27T18:59:55.507Z,100869.23
2018-04-27T19:02:23.860Z,100871.32
2018-04-27T19:04:52.310Z,100869.48
2018-04-27T19:07:21.382Z,100869.17
2018-04-27T19:09:49.715Z,100867.39
2018-04-27T19:12:18.132Z,100864.56
2018-04-27T19:14:48.044Z,100873.73
2018-04-27T19:17:16.423Z,100872.80
2018-04-27T19:19:44.853Z,100869.86
2018-04-27T19:22:31.750Z,100871.55
2018-04-27T19:25:00.281Z,100875.00
2018-04-27T19:27:29.545Z,100877.02
2018-04-27T19:29:57.928Z,100874.43
2018-04-27T19:32:26.336Z,100872.23
2018-04-27T19:34:54.824Z,100880.15
2018-04-27T19:37:23.942Z,100880.67
2018-04-27T19:39:52.411Z,100880.86
2018-04-27T19:42:21.504Z,100881.20
2018-04-27T19:44:50.619Z,100873.64
2018-04-27T19:47:19.085Z,100871.05
2018-04-27T19:49:48.316Z,100869.64
2018-04-27T19:52:16.668Z,100870.08
2018-04-27T19:54:45.031Z,100866.94
2018-04-27T19:57:13.416Z,100870.87
2018-04-27T19:59:41.803Z,100863.59
2018-04-27T20:02:10.184Z,100862.39
2018-04-27T20:04:39.311Z,100866.70
2018-04-27T20:07:07.643Z,100862.20
2018-04-27T20:09:37.061Z,100865.77
2018-04-27T20:12:06.335Z,100865.98
2018-04-27T20:14:38.372Z,100874.45
2018-04-27T20:17:06.736Z,100871.02
2018-04-27T20:19:38.379Z,100877.48
2018-04-27T20:22:11.954Z,100879.97
2018-04-27T20:24:40.396Z,100884.36
2018-04-27T20:27:08.732Z,100878.13
2018-04-27T20:29:37.236Z,100887.66
2018-04-27T20:32:05.604Z,100885.55
2018-04-27T20:34:34.015Z,100879.61
2018-04-27T20:37:02.470Z,100883.53
2018-04-27T20:39:31.659Z,100879.62
2018-04-27T20:42:00.186Z,100870.23
2018-04-27T20:44:28.658Z,100870.51
2018-04-27T20:46:57.028Z,100874.09
2018-04-27T20:49:25.385Z,100869.05
2018-04-27T20:51:53.824Z,100869.77
2018-04-27T20:54:22.151Z,100865.67
2018-04-27T20:56:50.542Z,100868.53
2018-04-27T20:59:19.684Z,100863.48
2018-04-27T21:01:48.084Z,100863.83
2018-04-27T21:04:16.489Z,100857.87
2018-04-27T21:06:45.715Z,100857.45
2018-04-27T21:09:14.067Z,100858.64
2018-04-27T21:11:43.262Z,100853.63
2018-04-27T21:14:12.031Z,100855.50
2018-04-27T21:16:41.326Z,100854.66
2018-04-27T21:19:09.732Z,100851.09
2018-04-27T21:21:38.096Z,100852.12
2018-04-27T21:24:06.451Z,100852.67
2018-04-27T21:26:43.919Z,100844.45
2018-04-27T21:29:21.459Z,100842.43
2018-04-27T21:31:50.261Z,100834.21
2018-04-27T21:34:18.705Z,100828.91
2018-04-27T21:36:50.716Z,100829.29
2018-04-27T21:39:28.185Z,100820.22
2018-04-27T21:42:13.867Z,100823.48
2018-04-27T21:44:44.186Z,100815.92
2018-04-27T21:47:26.386Z,100813.01
2018-04-27T21:49:55.551Z,100813.17
2018-04-27T21:52:31.214Z,100812.34
2018-04-27T21:54:59.563Z,100820.73
2018-04-27T21:57:50.267Z,100817.45
2018-04-27T22:00:22.940Z,100811.26
2018-04-27T22:03:26.281Z,100807.70
2018-04-27T22:06:25.079Z,100797.23
2018-04-27T22:09:09.158Z,100790.07
2018-04-27T22:11:50.923Z,100785.09
2018-04-27T22:14:34.180Z,100777.46
2018-04-27T22:17:19.027Z,100778.97
2018-04-27T22:19:48.475Z,100775.97
2018-04-27T22:22:16.993Z,100771.28
2018-04-27T22:24:59.536Z,100763.40
2018-04-27T22:27:29.672Z,100763.25
2018-04-27T22:30:02.758Z,100763.40
2018-04-27T22:32:40.342Z,100757.52
2018-04-27T22:35:20.506Z,100755.03
2018-04-27T22:37:53.396Z,100754.99
2018-04-27T22:40:35.680Z,100759.67
2018-04-27T22:43:14.254Z,100749.98
2018-04-27T22:45:46.363Z,100752.03
2018-04-27T22:48:40.392Z,100755.15
2018-04-27T22:51:10.147Z,100752.41
2018-04-27T22:53:42.007Z,100745.03
2018-04-27T22:56:19.779Z,100745.30
2018-04-27T22:58:48.871Z,100741.41
2018-04-27T23:01:17.277Z,100739.08
2018-04-27T23:03:45.686Z,100738.08
2018-04-27T23:06:14.008Z,100742.95
2018-04-27T23:08:53.343Z,100740.11
2018-04-27T23:11:33.114Z,100737.91
2018-04-27T23:14:08.359Z,100733.92
2018-04-27T23:16:37.496Z,100732.47
2018-04-27T23:19:08.162Z,100730.98
2018-04-27T23:25:13.042Z,100736.34
2018-04-27T23:27:42.475Z,100735.41
2018-04-27T23:30:10.824Z,100735.42
2018-04-27T23:32:41.176Z,100735.27
2018-04-27T23:35:09.546Z,100729.45
2018-04-27T23:37:38.669Z,100722.02
2018-04-27T23:40:07.015Z,100728.18
2018-04-27T23:42:36.163Z,100723.12
2018-04-27T23:45:05.219Z,100727.45
2018-04-27T23:47:34.314Z,100726.76
2018-04-27T23:50:03.569Z,100722.34
2018-04-27T23:52:31.895Z,100722.86
2018-04-27T23:55:00.575Z,100724.17
2018-04-27T23:57:32.432Z,100717.19
